Time;durP1;ratioP1;P1;durP2;ratioP2;P2;SDS_P1;SDS_P2;PMS_P1;PMS_P2;Temp;Humidity;BMP_temperature;BMP_pressure;BME280_temperature;BME280_humidity;BME280_pressure;Samples;Min_cycle;Max_cycle;Signal;HPM_P1;HPM_P2
2022/03/06 00:02:24;;;;;;;30.65;17.90;;;;;;;6.60;43.76;102212.63;5072513;28;20123;-62
2022/03/06 00:04:52;;;;;;;34.35;18.83;;;;;;;6.58;43.92;102211.81;5072591;28;20493;-62
2022/03/06 00:07:19;;;;;;;30.73;18.90;;;;;;;6.58;43.72;102210.94;5073664;28;20041;-62
2022/03/06 00:09:46;;;;;;;30.92;18.90;;;;;;;6.54;43.54;102215.50;5092460;28;20040;-62
2022/03/06 00:12:12;;;;;;;33.13;19.98;;;;;;;6.53;43.93;102215.56;5092626;28;20067;-61
2022/03/06 00:14:40;;;;;;;34.22;18.48;;;;;;;6.50;43.85;102221.00;5092702;28;20040;-62
2022/03/06 00:17:07;;;;;;;32.15;19.25;;;;;;;6.44;43.91;102219.41;5092835;28;20146;-63
2022/03/06 00:19:33;;;;;;;31.90;18.33;;;;;;;6.42;43.83;102223.91;5092304;28;20094;-62
2022/03/06 00:22:01;;;;;;;38.38;19.48;;;;;;;6.40;43.83;102224.88;5092399;28;20394;-62
2022/03/06 00:24:34;;;;;;;32.55;18.95;;;;;;;6.37;43.97;102226.72;5092909;28;20055;-62
2022/03/06 00:27:01;;;;;;;32.85;19.25;;;;;;;6.35;43.95;102220.56;5092744;28;20397;-62
2022/03/06 00:29:27;;;;;;;31.88;19.05;;;;;;;6.32;43.93;102228.66;5091990;28;20036;-62
2022/03/06 00:31:54;;;;;;;32.97;19.42;;;;;;;6.29;44.02;102226.09;5092091;28;20044;-62
2022/03/06 00:34:22;;;;;;;32.83;19.55;;;;;;;6.27;44.09;102224.38;5092261;28;20028;-62
2022/03/06 00:36:49;;;;;;;33.28;18.65;;;;;;;6.26;44.12;102227.97;5091953;28;20062;-62
2022/03/06 00:39:17;;;;;;;31.45;19.38;;;;;;;6.24;44.24;102233.38;5091847;28;20074;-62
2022/03/06 00:41:43;;;;;;;32.80;19.70;;;;;;;6.21;44.46;102230.78;5092034;28;20048;-62
2022/03/06 00:44:13;;;;;;;30.63;19.08;;;;;;;6.19;44.38;102232.63;5092135;28;20062;-63
2022/03/06 00:46:40;;;;;;;30.77;18.10;;;;;;;6.16;44.37;102239.84;5091184;28;20051;-62
2022/03/06 00:49:07;;;;;;;34.53;20.20;;;;;;;6.11;44.44;102240.00;5091499;28;20043;-62
2022/03/06 00:51:34;;;;;;;33.47;19.52;;;;;;;6.08;44.31;102239.22;5091956;28;20069;-62
2022/03/06 00:54:03;;;;;;;32.83;19.02;;;;;;;6.06;44.46;102247.25;5092335;28;20040;-64
2022/03/06 00:56:30;;;;;;;31.20;18.48;;;;;;;6.03;44.62;102245.56;5091759;28;20455;-62
2022/03/06 00:58:56;;;;;;;34.30;18.80;;;;;;;6.02;44.57;102242.94;5092302;28;20036;-62
2022/03/06 01:01:24;;;;;;;30.85;18.42;;;;;;;6.00;44.43;102240.31;5091721;28;20244;-63
2022/03/06 01:03:52;;;;;;;32.83;19.02;;;;;;;6.00;44.50;102247.44;5091987;28;20036;-62
2022/03/06 01:06:19;;;;;;;31.70;19.25;;;;;;;5.99;44.71;102249.25;5091931;28;20529;-62
2022/03/06 01:08:46;;;;;;;34.47;19.83;;;;;;;5.97;44.74;102251.06;5092030;28;20111;-62
2022/03/06 01:11:12;;;;;;;31.58;19.08;;;;;;;5.96;44.62;102252.00;5091982;28;20044;-62
2022/03/06 01:13:40;;;;;;;34.03;18.70;;;;;;;5.95;44.75;102252.03;5092495;28;20449;-64
2022/03/06 01:16:07;;;;;;;29.48;18.52;;;;;;;5.92;44.67;102252.09;5092205;28;20076;-62
2022/03/06 01:18:34;;;;;;;34.92;20.10;;;;;;;5.88;44.83;102251.28;5091885;28;20040;-62
2022/03/06 01:21:01;;;;;;;29.77;18.80;;;;;;;5.87;44.84;102262.00;5092080;28;20098;-62
2022/03/06 01:23:28;;;;;;;31.17;18.73;;;;;;;5.84;44.88;102257.63;5091344;28;20071;-62
2022/03/06 01:26:04;;;;;;;34.97;19.97;;;;;;;5.81;44.86;102259.50;5092176;28;20040;-62
2022/03/06 01:28:31;;;;;;;34.42;19.52;;;;;;;5.79;44.99;102256.00;5092718;28;20040;-61
2022/03/06 01:30:57;;;;;;;35.53;19.20;;;;;;;5.78;45.12;102259.59;5090931;28;20125;-63
2022/03/06 01:33:24;;;;;;;33.30;20.13;;;;;;;5.76;44.96;102264.97;5091239;28;20062;-63
2022/03/06 01:35:52;;;;;;;35.58;21.00;;;;;;;5.75;45.16;102266.75;5090898;28;20512;-63
2022/03/06 01:38:19;;;;;;;32.67;18.98;;;;;;;5.73;45.06;102265.94;5090953;28;20044;-62
2022/03/06 01:40:46;;;;;;;32.50;19.33;;;;;;;5.72;45.07;102265.97;5091266;28;20119;-62
2022/03/06 01:43:12;;;;;;;34.08;19.70;;;;;;;5.70;45.28;102259.81;5090800;28;20064;-63
2022/03/06 01:45:40;;;;;;;36.17;19.90;;;;;;;5.68;45.25;102265.19;5091514;28;20502;-62
2022/03/06 01:48:09;;;;;;;31.73;18.17;;;;;;;5.67;45.34;102262.56;5089733;28;20456;-63
2022/03/06 01:50:37;;;;;;;31.88;19.45;;;;;;;5.63;45.24;102263.56;5090904;28;20379;-62
2022/03/06 01:53:07;;;;;;;34.50;19.42;;;;;;;5.60;45.35;102261.84;5070991;28;20530;-62
2022/03/06 01:55:39;;;;;;;30.60;19.08;;;;;;;5.58;45.38;102270.81;5071051;28;20502;-62
2022/03/06 01:58:08;;;;;;;30.02;19.20;;;;;;;5.55;45.62;102263.78;5070995;28;20427;-63
2022/03/06 02:00:53;;;;;;;34.45;19.98;;;;;;;5.51;45.71;102263.91;5074267;28;20056;-62
2022/03/06 02:03:20;;;;;;;34.60;19.40;;;;;;;5.49;45.50;102265.72;5074595;28;20402;-63
2022/03/06 02:05:48;;;;;;;30.27;18.80;;;;;;;5.47;45.56;102265.78;5074437;28;20382;-62
2022/03/06 02:08:15;;;;;;;32.88;19.92;;;;;;;5.45;45.70;102272.94;5088430;28;20036;-62
2022/03/06 02:10:41;;;;;;;32.83;19.23;;;;;;;5.42;45.72;102263.25;5094137;28;20122;-62
2022/03/06 02:13:08;;;;;;;32.58;18.38;;;;;;;5.40;45.79;102265.06;5093694;28;20440;-62
2022/03/06 02:15:35;;;;;;;34.75;19.38;;;;;;;5.38;45.78;102269.56;5094343;28;20048;-61
2022/03/06 02:18:02;;;;;;;31.45;18.20;;;;;;;5.39;45.78;102270.44;5094279;28;20490;-62
2022/03/06 02:20:29;;;;;;;32.10;18.73;;;;;;;5.37;45.95;102273.16;5093213;28;20395;-63
2022/03/06 02:22:57;;;;;;;31.00;18.85;;;;;;;5.35;45.92;102264.31;5094212;28;20482;-62
2022/03/06 02:25:26;;;;;;;30.00;18.30;;;;;;;5.33;45.88;102270.59;5094013;28;20044;-62
2022/03/06 02:27:55;;;;;;;31.42;17.73;;;;;;;5.30;45.89;102274.22;5094081;28;20677;-62
2022/03/06 02:30:25;;;;;;;32.55;17.90;;;;;;;5.28;46.03;102272.50;5094343;28;20113;-62
2022/03/06 02:32:52;;;;;;;32.78;18.90;;;;;;;5.25;46.20;102276.13;5094444;28;20044;-63
2022/03/06 02:35:21;;;;;;;31.48;17.85;;;;;;;5.23;46.17;102282.41;5094132;28;20054;-61
2022/03/06 02:37:48;;;;;;;30.60;17.80;;;;;;;5.21;46.07;102287.78;5093675;28;20080;-62
2022/03/06 02:40:16;;;;;;;32.28;18.52;;;;;;;5.18;46.22;102278.97;5093638;28;20081;-62
2022/03/06 02:42:44;;;;;;;30.17;17.70;;;;;;;5.17;46.31;102278.09;5093905;28;20505;-63
2022/03/06 02:45:17;;;;;;;30.75;18.05;;;;;;;5.14;46.40;102286.16;5094004;28;20397;-62
2022/03/06 02:47:44;;;;;;;30.65;17.92;;;;;;;5.13;46.29;102273.75;5093643;28;20572;-62
2022/03/06 02:50:14;;;;;;;32.70;18.17;;;;;;;5.10;46.26;102284.50;5093709;28;20512;-62
2022/03/06 02:52:41;;;;;;;28.73;17.70;;;;;;;5.07;46.46;102282.78;5093734;28;20440;-62
2022/03/06 02:55:09;;;;;;;29.38;18.00;;;;;;;5.05;46.55;102275.75;5093620;28;20044;-62
2022/03/06 02:57:36;;;;;;;32.03;18.42;;;;;;;5.03;46.62;102283.78;5093254;28;20044;-62
2022/03/06 03:00:07;;;;;;;32.83;17.70;;;;;;;5.02;46.42;102274.03;5092234;28;20409;-63
2022/03/06 03:02:34;;;;;;;28.52;18.23;;;;;;;5.01;46.48;102274.94;5092349;28;20555;-62
2022/03/06 03:05:01;;;;;;;30.50;19.02;;;;;;;5.00;46.51;102278.53;5093398;28;20046;-62
2022/03/06 03:07:27;;;;;;;28.70;17.40;;;;;;;4.99;46.57;102284.75;5093782;28;20066;-62
2022/03/06 03:09:54;;;;;;;31.02;17.45;;;;;;;4.98;46.63;102283.00;5072794;28;20123;-62
2022/03/06 03:12:22;;;;;;;30.25;17.65;;;;;;;4.98;46.63;102288.34;5073196;28;20385;-62
2022/03/06 03:14:50;;;;;;;34.22;19.13;;;;;;;4.97;46.85;102286.59;5092903;28;20044;-62
2022/03/06 03:17:17;;;;;;;27.77;16.80;;;;;;;4.96;46.70;102290.16;5093187;28;20056;-61
2022/03/06 03:19:43;;;;;;;30.13;18.80;;;;;;;4.97;46.85;102296.38;5093290;28;20093;-61
2022/03/06 03:22:10;;;;;;;26.20;17.08;;;;;;;4.96;46.76;102289.28;5093140;28;20051;-62
2022/03/06 03:24:37;;;;;;;27.67;16.80;;;;;;;4.94;46.70;102289.31;5093513;28;20040;-63
2022/03/06 03:27:04;;;;;;;29.83;17.00;;;;;;;4.90;46.71;102287.66;5093189;28;20058;-62
2022/03/06 03:29:31;;;;;;;26.92;17.45;;;;;;;4.89;46.84;102291.22;5092830;28;20067;-63
2022/03/06 03:31:57;;;;;;;26.08;16.52;;;;;;;4.89;46.81;102296.53;5093042;28;20074;-62
2022/03/06 03:34:24;;;;;;;27.02;16.13;;;;;;;4.87;46.83;102298.38;5092962;28;20052;-63
2022/03/06 03:36:51;;;;;;;28.75;16.75;;;;;;;4.86;47.09;102301.94;5093095;28;20390;-62
2022/03/06 03:39:17;;;;;;;27.10;16.63;;;;;;;4.84;46.92;102301.13;5092848;28;20062;-62
2022/03/06 03:41:44;;;;;;;26.98;17.30;;;;;;;4.83;47.09;102306.47;5072969;28;20036;-62
2022/03/06 03:44:11;;;;;;;24.95;16.38;;;;;;;4.81;46.97;102311.84;5072905;28;20040;-63
2022/03/06 03:46:37;;;;;;;29.15;17.05;;;;;;;4.79;47.19;102308.34;5091240;28;20098;-62
2022/03/06 03:49:04;;;;;;;28.77;16.40;;;;;;;4.77;47.03;102310.16;5093003;28;20044;-63
2022/03/06 03:51:31;;;;;;;24.88;16.08;;;;;;;4.75;47.34;102302.22;5092908;28;20089;-63
2022/03/06 03:54:02;;;;;;;29.25;16.88;;;;;;;4.72;47.21;102306.72;5089306;28;20036;-62
2022/03/06 03:56:28;;;;;;;27.45;16.67;;;;;;;4.71;47.05;102312.97;5073623;28;20131;-63
2022/03/06 03:58:55;;;;;;;26.08;16.73;;;;;;;4.67;47.33;102306.84;5073760;28;20045;-62
2022/03/06 04:01:21;;;;;;;28.33;17.38;;;;;;;4.65;47.45;102306.00;5075317;28;20443;-62
2022/03/06 04:03:53;;;;;;;28.60;17.17;;;;;;;4.64;47.37;102298.03;5093809;28;20044;-62
2022/03/06 04:06:19;;;;;;;27.10;17.30;;;;;;;4.61;47.29;102312.31;5093564;28;20048;-63
2022/03/06 04:08:46;;;;;;;29.10;17.17;;;;;;;4.61;47.36;102306.09;5093441;28;20086;-62
2022/03/06 04:11:13;;;;;;;29.73;17.75;;;;;;;4.60;47.27;102320.31;5093504;28;20044;-63
2022/03/06 04:13:41;;;;;;;25.88;17.40;;;;;;;4.60;47.25;102321.19;5093945;28;20440;-63
2022/03/06 04:16:08;;;;;;;28.95;17.77;;;;;;;4.58;47.35;102317.69;5093777;28;20123;-63
2022/03/06 04:18:34;;;;;;;27.85;16.90;;;;;;;4.58;47.55;102320.34;5093373;28;20072;-63
2022/03/06 04:21:01;;;;;;;25.70;16.42;;;;;;;4.57;47.30;102317.72;5092999;28;20040;-63
2022/03/06 04:23:28;;;;;;;26.73;17.45;;;;;;;4.56;47.51;102324.84;5093154;28;20116;-63
2022/03/06 04:25:54;;;;;;;31.48;17.77;;;;;;;4.54;47.33;102328.44;5092982;28;20143;-63
2022/03/06 04:28:21;;;;;;;26.15;16.67;;;;;;;4.54;47.57;102331.09;5093248;28;20071;-62
2022/03/06 04:30:47;;;;;;;27.70;17.58;;;;;;;4.53;47.52;102329.34;5092573;28;20040;-62
2022/03/06 04:33:14;;;;;;;25.42;17.48;;;;;;;4.50;47.45;102332.94;5092645;28;20067;-63
2022/03/06 04:35:42;;;;;;;25.08;17.33;;;;;;;4.47;47.58;102331.22;5092935;28;20447;-63
2022/03/06 04:38:09;;;;;;;25.45;17.20;;;;;;;4.45;47.52;102330.34;5092399;28;20052;-62
2022/03/06 04:40:36;;;;;;;26.38;17.60;;;;;;;4.43;47.72;102337.50;5092718;28;20089;-62
2022/03/06 04:43:03;;;;;;;28.88;18.27;;;;;;;4.42;47.52;102340.19;5092531;28;20048;-62
2022/03/06 04:45:33;;;;;;;28.55;17.38;;;;;;;4.40;47.68;102347.31;5092341;28;20486;-63
2022/03/06 04:48:00;;;;;;;27.00;17.15;;;;;;;4.38;47.52;102350.03;5092175;28;20456;-63
2022/03/06 04:50:26;;;;;;;26.58;17.17;;;;;;;4.36;47.79;102354.50;5092159;28;20040;-62
2022/03/06 04:52:53;;;;;;;26.83;18.17;;;;;;;4.35;47.63;102354.53;5092547;28;20123;-62
2022/03/06 04:55:22;;;;;;;26.25;17.33;;;;;;;4.31;47.85;102356.38;5092464;28;20462;-62
2022/03/06 04:57:49;;;;;;;24.67;16.30;;;;;;;4.31;47.68;102359.03;5092125;28;20044;-62
2022/03/06 05:00:16;;;;;;;26.92;18.48;;;;;;;4.30;47.90;102357.28;5092003;28;20051;-62
2022/03/06 05:02:43;;;;;;;28.25;17.63;;;;;;;4.31;47.93;102363.47;5092228;28;20039;-62
2022/03/06 05:05:13;;;;;;;26.10;17.65;;;;;;;4.31;47.88;102369.69;5092277;28;20051;-62
2022/03/06 05:07:39;;;;;;;24.17;16.38;;;;;;;4.33;47.87;102381.16;5091919;28;20051;-63
2022/03/06 05:10:10;;;;;;;25.17;16.42;;;;;;;4.33;47.57;102375.84;5092029;28;20463;-62
2022/03/06 05:12:41;;;;;;;24.33;16.15;;;;;;;4.31;47.75;102382.97;5092195;28;20132;-63
2022/03/06 05:15:12;;;;;;;23.83;16.23;;;;;;;4.32;47.82;102383.84;5092284;28;20085;-62
2022/03/06 05:17:40;;;;;;;26.80;17.83;;;;;;;4.30;47.83;102380.34;5091647;28;20042;-62
2022/03/06 05:20:11;;;;;;;25.42;16.77;;;;;;;4.31;47.90;102387.41;5092235;28;20068;-62
2022/03/06 05:22:39;;;;;;;26.08;15.75;;;;;;;4.31;47.91;102393.63;5092074;28;20070;-62
2022/03/06 05:25:08;;;;;;;24.75;16.60;;;;;;;4.27;47.83;102389.25;5091931;28;20390;-62
2022/03/06 05:27:36;;;;;;;26.38;17.20;;;;;;;4.26;47.67;102390.16;5091727;28;20553;-62
2022/03/06 05:30:05;;;;;;;24.85;16.63;;;;;;;4.25;47.78;102388.41;5091697;28;20044;-62
2022/03/06 05:32:32;;;;;;;25.88;16.27;;;;;;;4.23;47.72;102390.22;5091831;28;20044;-62
2022/03/06 05:34:58;;;;;;;25.08;16.73;;;;;;;4.21;47.88;102391.16;5094973;28;20098;-62
2022/03/06 05:37:25;;;;;;;25.60;17.58;;;;;;;4.17;47.76;102390.34;5095554;28;20047;-62
2022/03/06 05:39:51;;;;;;;25.48;16.30;;;;;;;4.15;47.88;102389.50;5095281;28;20044;-62
2022/03/06 05:42:19;;;;;;;23.00;15.27;;;;;;;4.14;47.89;102393.06;5095636;28;20036;-62
2022/03/06 05:44:51;;;;;;;27.52;16.90;;;;;;;4.12;47.82;102395.75;5095703;28;20044;-62
2022/03/06 05:47:17;;;;;;;25.35;16.40;;;;;;;4.13;48.10;102399.31;5095264;28;20056;-62
2022/03/06 05:49:44;;;;;;;22.35;16.15;;;;;;;4.12;47.92;102400.22;5095324;28;20032;-63
2022/03/06 05:52:11;;;;;;;24.52;16.27;;;;;;;4.10;47.93;102402.03;5094078;28;20040;-62
2022/03/06 05:54:42;;;;;;;23.75;15.80;;;;;;;4.08;48.00;102404.72;5095273;28;20036;-63
2022/03/06 05:57:09;;;;;;;25.15;17.45;;;;;;;4.07;48.02;102408.28;5094149;28;20040;-62
2022/03/06 05:59:36;;;;;;;24.75;16.27;;;;;;;4.09;48.02;102410.91;5094983;28;20489;-62
2022/03/06 06:02:03;;;;;;;25.45;16.92;;;;;;;4.07;47.94;102408.28;5095337;28;20043;-63
2022/03/06 06:04:30;;;;;;;25.20;15.70;;;;;;;4.06;47.95;102411.84;5095016;28;20052;-62
2022/03/06 06:06:56;;;;;;;22.88;16.00;;;;;;;4.07;48.13;102412.72;5095290;28;20115;-62
2022/03/06 06:09:23;;;;;;;24.98;17.17;;;;;;;4.07;48.08;102415.38;5094778;28;20079;-62
2022/03/06 06:11:49;;;;;;;22.52;16.10;;;;;;;4.07;48.17;102423.34;5094090;28;20490;-62
2022/03/06 06:14:40;;;;;;;23.17;16.08;;;;;;;4.04;47.93;102424.28;5094979;28;20044;-62
2022/03/06 06:17:07;;;;;;;24.80;17.15;;;;;;;4.04;48.11;102437.56;5094648;28;20059;-62
2022/03/06 06:19:34;;;;;;;22.02;15.95;;;;;;;4.02;48.18;102431.41;5094719;28;20576;-62
2022/03/06 06:22:04;;;;;;;23.17;16.40;;;;;;;4.03;48.09;102437.59;5094715;28;20063;-62
2022/03/06 06:24:31;;;;;;;26.85;17.20;;;;;;;4.01;48.06;102432.31;5094763;28;20485;-62
2022/03/06 06:26:58;;;;;;;23.42;15.63;;;;;;;4.01;48.08;102434.97;5094107;28;20130;-62
2022/03/06 06:29:24;;;;;;;24.70;16.75;;;;;;;4.00;48.15;102443.84;5094418;28;20514;-62
2022/03/06 06:31:52;;;;;;;26.40;17.35;;;;;;;4.02;48.20;102446.47;5094009;28;20525;-62
2022/03/06 06:34:22;;;;;;;23.45;16.67;;;;;;;4.01;48.35;102445.59;5094635;28;20115;-63
2022/03/06 06:36:49;;;;;;;26.15;16.50;;;;;;;4.02;48.12;102455.34;5094424;28;20455;-62
2022/03/06 06:39:18;;;;;;;25.50;16.55;;;;;;;4.02;48.30;102451.81;5092758;28;20462;-61
2022/03/06 06:41:45;;;;;;;26.08;16.23;;;;;;;4.02;48.17;102451.81;5094402;28;20069;-62
2022/03/06 06:44:12;;;;;;;23.42;16.52;;;;;;;4.03;48.25;102453.56;5094016;28;20119;-62
2022/03/06 06:46:40;;;;;;;25.08;16.40;;;;;;;4.03;48.29;102454.44;5093234;28;20032;-62
2022/03/06 06:49:06;;;;;;;25.65;17.05;;;;;;;4.03;48.36;102465.06;5094257;28;20123;-62
2022/03/06 06:51:34;;;;;;;23.45;16.00;;;;;;;4.03;48.33;102466.84;5094299;28;20087;-62
2022/03/06 06:54:02;;;;;;;26.15;17.38;;;;;;;4.03;48.27;102473.03;5094499;28;20463;-62
2022/03/06 06:56:29;;;;;;;25.52;16.70;;;;;;;4.04;48.37;102472.13;5094138;28;20058;-62
2022/03/06 06:58:55;;;;;;;25.75;17.00;;;;;;;4.04;48.29;102466.81;5092864;28;20036;-62
2022/03/06 07:01:22;;;;;;;25.63;17.55;;;;;;;4.05;48.52;102475.66;5093985;28;20046;-62
2022/03/06 07:03:53;;;;;;;24.95;16.42;;;;;;;4.06;48.47;102480.09;5094198;28;20039;-62
2022/03/06 07:06:20;;;;;;;25.15;16.38;;;;;;;4.07;48.59;102480.06;5094273;28;20490;-62
2022/03/06 07:08:46;;;;;;;22.88;17.40;;;;;;;4.08;48.50;102483.59;5094103;28;20047;-62
2022/03/06 07:11:13;;;;;;;28.70;17.05;;;;;;;4.09;48.60;102488.88;5084408;28;20506;-62
2022/03/06 07:13:43;;;;;;;28.52;16.60;;;;;;;4.10;48.54;102477.34;5077434;28;20106;-63
2022/03/06 07:16:10;;;;;;;26.27;17.23;;;;;;;4.14;48.54;102478.16;5082603;28;20067;-62
2022/03/06 07:18:36;;;;;;;22.90;16.45;;;;;;;4.18;48.64;102481.63;5092661;28;20040;-62
2022/03/06 07:21:03;;;;;;;26.90;18.25;;;;;;;4.20;48.77;102480.72;5078001;28;20132;-62
2022/03/06 07:23:55;;;;;;;25.83;16.95;;;;;;;4.26;48.80;102487.69;5082493;28;20048;-66
2022/03/06 07:26:21;;;;;;;24.85;17.13;;;;;;;4.34;48.76;102489.28;5089124;28;20029;-62
2022/03/06 07:28:48;;;;;;;23.85;16.80;;;;;;;4.42;48.75;102503.31;5085236;28;20490;-62
2022/03/06 07:31:14;;;;;;;22.25;15.50;;;;;;;4.54;48.97;102498.72;5093667;28;20054;-62
2022/03/06 07:33:43;;;;;;;23.83;16.05;;;;;;;4.63;48.95;102504.72;5084733;28;20048;-62
2022/03/06 07:36:10;;;;;;;22.75;16.15;;;;;;;4.75;48.97;102506.25;5090041;28;20051;-63
2022/03/06 07:38:36;;;;;;;26.75;16.08;;;;;;;4.87;49.17;102514.00;5092841;28;20044;-63
2022/03/06 07:41:03;;;;;;;21.05;15.05;;;;;;;5.00;49.03;102519.94;5090259;28;20032;-64
2022/03/06 07:43:47;;;;;;;23.95;14.85;;;;;;;5.10;48.94;102519.69;5087241;28;20036;-63
2022/03/06 07:46:13;;;;;;;21.15;15.30;;;;;;;5.24;48.92;102519.44;5092790;28;20115;-63
2022/03/06 07:48:40;;;;;;;20.33;14.75;;;;;;;5.38;48.90;102527.13;5092589;28;20528;-63
2022/03/06 07:51:06;;;;;;;25.45;15.20;;;;;;;5.49;48.93;102514.41;5093071;28;20089;-63
2022/03/06 07:53:37;;;;;;;18.77;15.00;;;;;;;5.60;48.90;102525.69;5092873;28;20036;-63
2022/03/06 07:56:04;;;;;;;21.33;15.35;;;;;;;5.70;48.69;102529.91;5092291;28;20044;-63
2022/03/06 07:58:31;;;;;;;20.13;15.30;;;;;;;5.79;48.71;102536.78;5092638;28;20397;-63
2022/03/06 08:00:57;;;;;;;19.77;14.32;;;;;;;5.88;48.81;102533.03;5092753;28;20050;-63
2022/03/06 08:03:24;;;;;;;21.85;15.05;;;;;;;6.00;48.63;102535.47;5093179;28;20139;-63
2022/03/06 08:05:51;;;;;;;21.05;14.95;;;;;;;6.09;48.52;102537.88;5092780;28;20056;-63
2022/03/06 08:08:17;;;;;;;20.17;14.45;;;;;;;6.18;48.44;102539.44;5092922;28;20127;-63
2022/03/06 08:10:44;;;;;;;17.95;13.65;;;;;;;6.25;48.33;102541.91;5092460;28;20048;-63
2022/03/06 08:13:10;;;;;;;20.65;13.98;;;;;;;6.30;48.30;102548.00;5092702;28;20405;-63
2022/03/06 08:15:41;;;;;;;23.48;14.50;;;;;;;6.35;48.38;102545.22;5092717;28;20044;-63
2022/03/06 08:18:07;;;;;;;21.63;15.30;;;;;;;6.42;48.30;102545.94;5092196;28;20134;-63
2022/03/06 08:20:34;;;;;;;21.90;14.45;;;;;;;6.52;48.33;102550.09;5092737;28;20418;-63
2022/03/06 08:23:01;;;;;;;22.10;14.85;;;;;;;6.61;48.33;102549.84;5092219;28;20051;-62
2022/03/06 08:25:30;;;;;;;20.25;14.48;;;;;;;6.73;48.29;102546.88;5091321;28;20040;-62
2022/03/06 08:27:57;;;;;;;22.00;15.50;;;;;;;6.87;48.36;102551.81;5092352;28;20040;-62
2022/03/06 08:30:24;;;;;;;18.67;14.32;;;;;;;6.98;48.17;102553.25;5092024;28;20044;-63
2022/03/06 08:32:50;;;;;;;22.33;15.18;;;;;;;7.08;47.99;102547.66;5092489;28;20116;-63
2022/03/06 08:35:17;;;;;;;19.20;14.93;;;;;;;7.17;48.14;102553.59;5092355;28;20447;-63
2022/03/06 08:37:43;;;;;;;19.40;13.65;;;;;;;7.27;47.94;102568.44;5091797;28;20036;-64
2022/03/06 08:40:10;;;;;;;21.23;15.05;;;;;;;7.34;47.84;102561.97;5092148;28;20115;-62
2022/03/06 08:42:37;;;;;;;21.83;15.40;;;;;;;7.43;47.79;102570.66;5091692;28;20490;-62
2022/03/06 08:45:05;;;;;;;18.17;13.48;;;;;;;7.49;47.74;102557.13;5091660;28;20040;-62
2022/03/06 08:47:32;;;;;;;21.63;14.57;;;;;;;7.53;47.40;102567.66;5091576;28;20101;-62
2022/03/06 08:49:59;;;;;;;19.35;13.82;;;;;;;7.56;47.47;102564.03;5091395;28;20040;-62
2022/03/06 08:52:25;;;;;;;19.30;14.23;;;;;;;7.58;47.40;102563.06;5091956;28;20044;-62
2022/03/06 08:54:55;;;;;;;21.25;14.20;;;;;;;7.64;47.28;102562.88;5091574;28;20039;-62
2022/03/06 08:57:23;;;;;;;18.90;14.20;;;;;;;7.71;47.41;102566.22;5092015;28;20072;-62
2022/03/06 08:59:50;;;;;;;17.45;13.98;;;;;;;7.78;47.25;102569.56;5091929;28;20390;-62
2022/03/06 09:02:17;;;;;;;18.52;13.48;;;;;;;7.84;47.21;102561.34;5091695;28;20378;-62
2022/03/06 09:04:48;;;;;;;20.60;14.18;;;;;;;7.90;47.20;102571.84;5090450;28;20468;-62
2022/03/06 09:07:15;;;;;;;17.25;13.85;;;;;;;7.95;47.14;102567.22;5091327;28;20536;-62
2022/03/06 09:09:42;;;;;;;17.20;14.05;;;;;;;8.03;47.12;102566.97;5089899;28;20582;-62
2022/03/06 09:12:08;;;;;;;18.80;14.23;;;;;;;8.11;47.04;102570.28;5091206;28;20036;-62
2022/03/06 09:14:40;;;;;;;17.08;13.43;;;;;;;8.21;47.01;102567.25;5091507;28;20551;-62
2022/03/06 09:17:09;;;;;;;17.17;13.35;;;;;;;8.34;46.99;102580.28;5090975;28;20052;-62
2022/03/06 09:19:35;;;;;;;16.67;12.98;;;;;;;8.45;46.91;102567.38;5090578;28;20048;-61
2022/03/06 09:22:02;;;;;;;19.80;13.38;;;;;;;8.57;46.83;102575.00;5091142;28;20059;-62
2022/03/06 09:24:31;;;;;;;20.75;13.25;;;;;;;8.67;46.66;102572.84;5091354;28;20043;-64
2022/03/06 09:26:57;;;;;;;18.13;12.93;;;;;;;8.76;46.69;102570.72;5090790;28;20066;-62
2022/03/06 09:29:24;;;;;;;16.92;12.90;;;;;;;8.84;46.59;102571.31;5091448;28;20477;-62
2022/03/06 09:31:50;;;;;;;16.85;12.85;;;;;;;8.96;46.57;102580.75;5091804;28;20554;-62
2022/03/06 09:34:18;;;;;;;17.98;13.63;;;;;;;9.04;46.51;102575.09;5091907;28;20072;-61
2022/03/06 09:36:46;;;;;;;14.75;12.63;;;;;;;9.11;46.31;102571.25;5091919;28;20075;-63
2022/03/06 09:39:13;;;;;;;17.52;12.00;;;;;;;9.17;46.26;102571.91;5092008;28;20374;-62
2022/03/06 09:41:40;;;;;;;16.17;12.05;;;;;;;9.22;46.13;102577.09;5091814;28;20059;-63
2022/03/06 09:44:12;;;;;;;17.13;13.15;;;;;;;9.28;45.99;102574.19;5091839;28;20131;-63
2022/03/06 09:46:39;;;;;;;18.73;12.32;;;;;;;9.37;45.96;102576.50;5091676;28;20048;-63
2022/03/06 09:49:07;;;;;;;15.38;12.15;;;;;;;9.48;46.01;102578.78;5091584;28;20408;-63
2022/03/06 09:51:38;;;;;;;14.77;11.43;;;;;;;9.57;45.86;102573.03;5091758;28;20040;-62
2022/03/06 09:54:12;;;;;;;15.52;12.07;;;;;;;9.63;45.80;102577.28;5091804;28;20452;-63
2022/03/06 09:56:39;;;;;;;13.82;11.23;;;;;;;9.68;45.39;102572.66;5091348;28;20048;-62
2022/03/06 09:59:06;;;;;;;15.13;12.27;;;;;;;9.69;45.59;102561.84;5091469;28;20063;-62
2022/03/06 10:01:33;;;;;;;14.77;12.20;;;;;;;9.76;45.37;102565.16;5091846;28;20471;-63
2022/03/06 10:04:26;;;;;;;14.02;11.90;;;;;;;9.82;45.29;102575.66;5091695;28;20509;-62
2022/03/06 10:07:05;;;;;;;16.40;12.73;;;;;;;9.91;45.32;102580.66;5092012;28;20043;-63
2022/03/06 10:09:33;;;;;;;15.90;12.00;;;;;;;9.95;45.15;102582.28;5091135;28;20066;-62
2022/03/06 10:12:00;;;;;;;15.80;11.95;;;;;;;9.97;44.91;102575.03;5091533;28;20081;-62
2022/03/06 10:14:39;;;;;;;13.40;11.43;;;;;;;10.01;44.91;102579.34;5071480;28;20453;-63
2022/03/06 10:17:14;;;;;;;14.70;11.05;;;;;;;10.06;44.83;102573.78;5071729;28;20045;-64
2022/03/06 10:19:52;;;;;;;14.97;11.57;;;;;;;10.12;44.86;102571.72;5091256;28;20054;-63
2022/03/06 10:22:21;;;;;;;14.85;11.50;;;;;;;10.18;44.76;102565.22;5095092;28;20040;-63
2022/03/06 10:24:52;;;;;;;16.40;10.98;;;;;;;10.25;44.91;102574.78;5094969;28;20131;-63
2022/03/06 10:27:59;;;;;;;13.77;10.80;;;;;;;10.37;44.67;102565.34;5095150;28;20044;-63
2022/03/06 10:30:29;;;;;;;12.75;10.45;;;;;;;10.52;44.49;102567.38;5095884;28;20048;-63
2022/03/06 10:32:58;;;;;;;13.20;11.25;;;;;;;10.63;44.57;102575.84;5095257;28;20047;-62
2022/03/06 10:35:39;;;;;;;13.27;10.75;;;;;;;10.70;44.35;102580.03;5095125;28;20139;-64
2022/03/06 10:38:25;;;;;;;12.95;10.98;;;;;;;10.79;44.44;102576.06;5094367;28;20477;-64
2022/03/06 10:40:52;;;;;;;13.73;10.93;;;;;;;10.89;43.98;102576.50;5095527;28;20467;-64
2022/03/06 10:43:23;;;;;;;13.07;10.55;;;;;;;10.97;43.94;102569.84;5094810;28;20032;-65
2022/03/06 10:46:07;;;;;;;14.10;10.68;;;;;;;11.05;43.67;102564.13;5095303;28;20036;-64
2022/03/06 10:48:33;;;;;;;12.98;10.80;;;;;;;11.16;43.64;102564.53;5094511;28;20044;-66
2022/03/06 10:51:11;;;;;;;14.05;11.45;;;;;;;11.24;43.53;102567.75;5094713;28;20070;-65
2022/03/06 10:53:42;;;;;;;12.00;10.68;;;;;;;11.30;43.19;102561.19;5094321;28;20509;-64
2022/03/06 10:56:14;;;;;;;12.57;11.02;;;;;;;11.38;43.19;102559.03;5094821;28;20093;-65
2022/03/06 10:58:44;;;;;;;12.05;10.40;;;;;;;11.44;43.13;102561.41;5074619;28;20088;-65
2022/03/06 11:01:26;;;;;;;14.47;11.00;;;;;;;11.51;42.89;102562.88;5074474;28;20457;-65
2022/03/06 11:03:58;;;;;;;13.55;10.48;;;;;;;11.56;42.51;102551.88;5074616;28;20413;-65
2022/03/06 11:06:26;;;;;;;15.65;10.95;;;;;;;11.61;42.50;102547.16;5074871;28;20049;-65
2022/03/06 11:08:53;;;;;;;15.82;11.52;;;;;;;11.64;42.08;102555.09;5074230;28;20079;-64
2022/03/06 11:11:20;;;;;;;13.50;10.80;;;;;;;11.71;42.18;102556.53;5074353;28;20052;-65
2022/03/06 11:13:55;;;;;;;12.63;10.50;;;;;;;11.82;42.03;102556.03;5074510;28;20367;-65
2022/03/06 11:16:22;;;;;;;11.70;10.38;;;;;;;11.90;41.80;102552.06;5074461;28;20032;-64
2022/03/06 11:18:52;;;;;;;13.20;10.65;;;;;;;12.00;41.57;102555.16;5086979;28;20067;-64
2022/03/06 11:21:19;;;;;;;14.25;10.90;;;;;;;12.11;41.18;102551.94;5094512;28;20119;-63
2022/03/06 11:23:52;;;;;;;15.35;10.90;;;;;;;12.25;41.49;102552.09;5094930;28;20062;-64